sensor_id;sensor_type;location;lat;lon;timestamp;P1;durP1;ratioP1;P2;durP2;ratioP2
1014;SDS011;8170;48.118;11.628;2022-12-11T00:00:44;37.60;;;24.67;;
1014;SDS011;8170;48.118;11.628;2022-12-11T00:01:46;35.55;;;24.63;;
1014;SDS011;8170;48.118;11.628;2022-12-11T00:02:50;36.30;;;24.10;;
1014;SDS011;8170;48.118;11.628;2022-12-11T00:03:52;35.35;;;25.60;;
1014;SDS011;8170;48.118;11.628;2022-12-11T00:04:55;37.67;;;25.80;;
1014;SDS011;8170;48.118;11.628;2022-12-11T00:05:59;33.90;;;23.40;;
1014;SDS011;8170;48.118;11.628;2022-12-11T00:07:05;37.78;;;25.50;;
1014;SDS011;8170;48.118;11.628;2022-12-11T00:08:09;38.30;;;26.33;;
1014;SDS011;8170;48.118;11.628;2022-12-11T00:09:11;30.88;;;22.50;;
1014;SDS011;8170;48.118;11.628;2022-12-11T00:10:15;37.88;;;26.50;;
1014;SDS011;8170;48.118;11.628;2022-12-11T00:11:17;37.40;;;25.92;;
1014;SDS011;8170;48.118;11.628;2022-12-11T00:12:20;37.50;;;24.42;;
1014;SDS011;8170;48.118;11.628;2022-12-11T00:13:24;41.83;;;26.35;;
1014;SDS011;8170;48.118;11.628;2022-12-11T00:14:27;34.58;;;24.70;;
1014;SDS011;8170;48.118;11.628;2022-12-11T00:15:30;37.88;;;25.70;;
1014;SDS011;8170;48.118;11.628;2022-12-11T00:16:33;36.33;;;23.75;;
1014;SDS011;8170;48.118;11.628;2022-12-11T00:17:35;41.40;;;26.27;;
1014;SDS011;8170;48.118;11.628;2022-12-11T00:18:38;35.42;;;25.25;;
1014;SDS011;8170;48.118;11.628;2022-12-11T00:19:41;37.22;;;25.92;;
1014;SDS011;8170;48.118;11.628;2022-12-11T00:20:44;33.65;;;24.08;;
1014;SDS011;8170;48.118;11.628;2022-12-11T00:21:46;35.90;;;24.83;;
1014;SDS011;8170;48.118;11.628;2022-12-11T00:22:49;35.67;;;25.10;;
1014;SDS011;8170;48.118;11.628;2022-12-11T00:23:51;36.50;;;25.30;;
1014;SDS011;8170;48.118;11.628;2022-12-11T00:24:54;36.47;;;25.20;;
1014;SDS011;8170;48.118;11.628;2022-12-11T00:25:56;37.38;;;26.13;;
1014;SDS011;8170;48.118;11.628;2022-12-11T00:27:03;41.20;;;27.50;;
1014;SDS011;8170;48.118;11.628;2022-12-11T00:28:05;37.65;;;24.42;;
1014;SDS011;8170;48.118;11.628;2022-12-11T00:29:10;33.33;;;23.40;;
1014;SDS011;8170;48.118;11.628;2022-12-11T00:30:15;37.47;;;24.75;;
1014;SDS011;8170;48.118;11.628;2022-12-11T00:31:18;37.25;;;25.02;;
1014;SDS011;8170;48.118;11.628;2022-12-11T00:32:21;36.08;;;24.42;;
1014;SDS011;8170;48.118;11.628;2022-12-11T00:33:25;35.67;;;24.88;;
1014;SDS011;8170;48.118;11.628;2022-12-11T00:34:27;34.83;;;24.45;;
1014;SDS011;8170;48.118;11.628;2022-12-11T00:35:30;33.15;;;23.23;;
1014;SDS011;8170;48.118;11.628;2022-12-11T00:36:32;35.03;;;24.75;;
1014;SDS011;8170;48.118;11.628;2022-12-11T00:37:35;40.08;;;26.55;;
1014;SDS011;8170;48.118;11.628;2022-12-11T00:38:38;34.90;;;24.08;;
1014;SDS011;8170;48.118;11.628;2022-12-11T00:39:41;37.33;;;24.55;;
1014;SDS011;8170;48.118;11.628;2022-12-11T00:40:43;37.65;;;25.17;;
1014;SDS011;8170;48.118;11.628;2022-12-11T00:41:47;33.92;;;23.92;;
1014;SDS011;8170;48.118;11.628;2022-12-11T00:42:49;33.22;;;24.88;;
1014;SDS011;8170;48.118;11.628;2022-12-11T00:43:52;33.08;;;22.20;;
1014;SDS011;8170;48.118;11.628;2022-12-11T00:44:55;32.95;;;23.50;;
1014;SDS011;8170;48.118;11.628;2022-12-11T00:45:58;32.85;;;22.92;;
1014;SDS011;8170;48.118;11.628;2022-12-11T00:47:01;33.60;;;22.77;;
1014;SDS011;8170;48.118;11.628;2022-12-11T00:48:09;32.78;;;22.02;;
1014;SDS011;8170;48.118;11.628;2022-12-11T00:49:12;28.80;;;21.13;;
1014;SDS011;8170;48.118;11.628;2022-12-11T00:50:14;31.33;;;21.42;;
1014;SDS011;8170;48.118;11.628;2022-12-11T00:51:17;35.90;;;23.40;;
1014;SDS011;8170;48.118;11.628;2022-12-11T00:52:20;31.95;;;22.65;;
1014;SDS011;8170;48.118;11.628;2022-12-11T00:53:23;32.00;;;22.45;;
1014;SDS011;8170;48.118;11.628;2022-12-11T00:54:25;36.58;;;24.63;;
1014;SDS011;8170;48.118;11.628;2022-12-11T00:55:28;35.25;;;24.02;;
1014;SDS011;8170;48.118;11.628;2022-12-11T00:56:31;38.88;;;23.60;;
1014;SDS011;8170;48.118;11.628;2022-12-11T00:57:34;33.17;;;22.92;;
1014;SDS011;8170;48.118;11.628;2022-12-11T00:58:36;37.88;;;25.75;;
1014;SDS011;8170;48.118;11.628;2022-12-11T00:59:39;34.13;;;24.02;;
1014;SDS011;8170;48.118;11.628;2022-12-11T01:00:43;35.95;;;23.65;;
1014;SDS011;8170;48.118;11.628;2022-12-11T01:01:46;36.20;;;23.58;;
1014;SDS011;8170;48.118;11.628;2022-12-11T01:02:49;36.00;;;25.55;;
1014;SDS011;8170;48.118;11.628;2022-12-11T01:03:51;32.35;;;23.35;;
1014;SDS011;8170;48.118;11.628;2022-12-11T01:04:55;35.47;;;23.60;;
1014;SDS011;8170;48.118;11.628;2022-12-11T01:05:57;34.63;;;23.98;;
1014;SDS011;8170;48.118;11.628;2022-12-11T01:07:03;34.80;;;22.65;;
1014;SDS011;8170;48.118;11.628;2022-12-11T01:08:06;37.95;;;25.67;;
1014;SDS011;8170;48.118;11.628;2022-12-11T01:09:09;31.13;;;22.23;;
1014;SDS011;8170;48.118;11.628;2022-12-11T01:10:30;35.08;;;22.83;;
1014;SDS011;8170;48.118;11.628;2022-12-11T01:11:32;35.58;;;23.25;;
1014;SDS011;8170;48.118;11.628;2022-12-11T01:12:36;33.97;;;23.02;;
1014;SDS011;8170;48.118;11.628;2022-12-11T01:13:38;34.17;;;24.75;;
1014;SDS011;8170;48.118;11.628;2022-12-11T01:14:42;35.70;;;24.15;;
1014;SDS011;8170;48.118;11.628;2022-12-11T01:15:45;36.90;;;23.00;;
1014;SDS011;8170;48.118;11.628;2022-12-11T01:16:48;31.25;;;23.25;;
1014;SDS011;8170;48.118;11.628;2022-12-11T01:17:51;29.88;;;22.27;;
1014;SDS011;8170;48.118;11.628;2022-12-11T01:18:55;31.13;;;21.42;;
1014;SDS011;8170;48.118;11.628;2022-12-11T01:19:58;34.22;;;23.27;;
1014;SDS011;8170;48.118;11.628;2022-12-11T01:21:04;31.58;;;21.58;;
1014;SDS011;8170;48.118;11.628;2022-12-11T01:22:06;33.25;;;21.95;;
1014;SDS011;8170;48.118;11.628;2022-12-11T01:23:10;32.25;;;22.08;;
1014;SDS011;8170;48.118;11.628;2022-12-11T01:24:13;31.17;;;22.10;;
1014;SDS011;8170;48.118;11.628;2022-12-11T01:25:16;31.70;;;22.35;;
1014;SDS011;8170;48.118;11.628;2022-12-11T01:26:19;31.92;;;21.90;;
1014;SDS011;8170;48.118;11.628;2022-12-11T01:27:23;36.85;;;24.67;;
1014;SDS011;8170;48.118;11.628;2022-12-11T01:28:25;36.10;;;22.90;;
1014;SDS011;8170;48.118;11.628;2022-12-11T01:29:28;36.38;;;21.95;;
1014;SDS011;8170;48.118;11.628;2022-12-11T01:30:31;35.65;;;22.80;;
1014;SDS011;8170;48.118;11.628;2022-12-11T01:31:36;33.22;;;21.58;;
1014;SDS011;8170;48.118;11.628;2022-12-11T01:32:38;33.10;;;22.85;;
1014;SDS011;8170;48.118;11.628;2022-12-11T01:33:41;33.47;;;22.70;;
1014;SDS011;8170;48.118;11.628;2022-12-11T01:34:44;32.28;;;22.10;;
1014;SDS011;8170;48.118;11.628;2022-12-11T01:35:47;33.30;;;23.58;;
1014;SDS011;8170;48.118;11.628;2022-12-11T01:36:50;32.50;;;22.20;;
1014;SDS011;8170;48.118;11.628;2022-12-11T01:37:54;31.55;;;22.27;;
1014;SDS011;8170;48.118;11.628;2022-12-11T01:38:56;32.80;;;23.23;;
1014;SDS011;8170;48.118;11.628;2022-12-11T01:40:00;35.90;;;23.02;;
1014;SDS011;8170;48.118;11.628;2022-12-11T01:41:02;32.50;;;21.55;;
1014;SDS011;8170;48.118;11.628;2022-12-11T01:42:06;33.55;;;21.90;;
1014;SDS011;8170;48.118;11.628;2022-12-11T01:43:15;34.90;;;23.45;;
1014;SDS011;8170;48.118;11.628;2022-12-11T01:45:58;31.75;;;21.58;;
1014;SDS011;8170;48.118;11.628;2022-12-11T01:47:03;34.08;;;22.23;;
1014;SDS011;8170;48.118;11.628;2022-12-11T01:48:06;32.10;;;23.17;;
1014;SDS011;8170;48.118;11.628;2022-12-11T01:49:12;33.60;;;22.02;;
1014;SDS011;8170;48.118;11.628;2022-12-11T01:50:15;31.80;;;21.90;;
1014;SDS011;8170;48.118;11.628;2022-12-11T01:51:20;36.05;;;22.65;;
1014;SDS011;8170;48.118;11.628;2022-12-11T01:52:23;29.20;;;20.67;;
1014;SDS011;8170;48.118;11.628;2022-12-11T01:53:27;34.45;;;22.75;;
1014;SDS011;8170;48.118;11.628;2022-12-11T01:54:32;30.83;;;22.05;;
1014;SDS011;8170;48.118;11.628;2022-12-11T01:55:35;30.42;;;20.92;;
1014;SDS011;8170;48.118;11.628;2022-12-11T01:56:40;29.98;;;21.40;;
1014;SDS011;8170;48.118;11.628;2022-12-11T01:57:46;32.90;;;23.08;;
1014;SDS011;8170;48.118;11.628;2022-12-11T01:58:54;33.80;;;22.90;;
1014;SDS011;8170;48.118;11.628;2022-12-11T02:00:00;33.45;;;22.98;;
1014;SDS011;8170;48.118;11.628;2022-12-11T02:01:14;32.67;;;22.33;;
1014;SDS011;8170;48.118;11.628;2022-12-11T02:02:25;30.63;;;21.95;;
1014;SDS011;8170;48.118;11.628;2022-12-11T02:03:30;31.33;;;21.90;;
1014;SDS011;8170;48.118;11.628;2022-12-11T02:04:34;36.38;;;23.77;;
1014;SDS011;8170;48.118;11.628;2022-12-11T02:05:39;29.58;;;22.60;;
1014;SDS011;8170;48.118;11.628;2022-12-11T02:06:43;31.25;;;22.55;;
1014;SDS011;8170;48.118;11.628;2022-12-11T02:07:48;31.80;;;22.77;;
1014;SDS011;8170;48.118;11.628;2022-12-11T02:08:55;32.25;;;22.15;;
1014;SDS011;8170;48.118;11.628;2022-12-11T02:09:57;32.03;;;21.35;;
1014;SDS011;8170;48.118;11.628;2022-12-11T02:11:04;34.80;;;23.48;;
1014;SDS011;8170;48.118;11.628;2022-12-11T02:12:11;36.28;;;24.15;;
1014;SDS011;8170;48.118;11.628;2022-12-11T02:13:22;33.45;;;22.17;;
1014;SDS011;8170;48.118;11.628;2022-12-11T02:14:33;30.27;;;20.95;;
1014;SDS011;8170;48.118;11.628;2022-12-11T02:15:41;26.98;;;18.88;;
1014;SDS011;8170;48.118;11.628;2022-12-11T02:16:51;33.75;;;23.52;;
1014;SDS011;8170;48.118;11.628;2022-12-11T02:18:04;31.90;;;20.70;;
1014;SDS011;8170;48.118;11.628;2022-12-11T02:19:17;28.95;;;20.63;;
1014;SDS011;8170;48.118;11.628;2022-12-11T02:20:32;28.67;;;20.73;;
1014;SDS011;8170;48.118;11.628;2022-12-11T02:21:40;29.58;;;20.90;;
1014;SDS011;8170;48.118;11.628;2022-12-11T02:22:58;27.35;;;18.75;;
1014;SDS011;8170;48.118;11.628;2022-12-11T02:24:31;31.02;;;22.35;;
1014;SDS011;8170;48.118;11.628;2022-12-11T02:25:53;26.45;;;18.88;;
1014;SDS011;8170;48.118;11.628;2022-12-11T02:27:10;29.27;;;20.33;;
1014;SDS011;8170;48.118;11.628;2022-12-11T02:28:23;31.98;;;20.92;;
1014;SDS011;8170;48.118;11.628;2022-12-11T02:29:32;27.17;;;19.52;;
1014;SDS011;8170;48.118;11.628;2022-12-11T02:30:38;31.05;;;20.85;;
1014;SDS011;8170;48.118;11.628;2022-12-11T02:31:44;33.10;;;21.83;;
1014;SDS011;8170;48.118;11.628;2022-12-11T02:32:52;31.45;;;21.50;;
1014;SDS011;8170;48.118;11.628;2022-12-11T02:33:57;26.63;;;19.17;;
1014;SDS011;8170;48.118;11.628;2022-12-11T02:35:05;29.95;;;20.60;;
1014;SDS011;8170;48.118;11.628;2022-12-11T02:36:11;25.75;;;18.08;;
1014;SDS011;8170;48.118;11.628;2022-12-11T02:37:19;27.13;;;20.15;;
1014;SDS011;8170;48.118;11.628;2022-12-11T02:38:25;30.85;;;20.85;;
1014;SDS011;8170;48.118;11.628;2022-12-11T02:39:33;27.40;;;19.45;;
1014;SDS011;8170;48.118;11.628;2022-12-11T02:40:38;31.00;;;20.75;;
1014;SDS011;8170;48.118;11.628;2022-12-11T02:41:45;30.35;;;20.65;;
1014;SDS011;8170;48.118;11.628;2022-12-11T02:42:50;27.25;;;19.23;;
1014;SDS011;8170;48.118;11.628;2022-12-11T02:43:58;28.88;;;20.55;;
1014;SDS011;8170;48.118;11.628;2022-12-11T02:45:02;30.85;;;20.92;;
1014;SDS011;8170;48.118;11.628;2022-12-11T02:46:08;27.80;;;19.58;;
1014;SDS011;8170;48.118;11.628;2022-12-11T02:47:11;27.48;;;19.27;;
1014;SDS011;8170;48.118;11.628;2022-12-11T02:48:17;27.45;;;19.85;;
1014;SDS011;8170;48.118;11.628;2022-12-11T02:49:21;26.33;;;19.95;;
1014;SDS011;8170;48.118;11.628;2022-12-11T02:50:25;28.25;;;19.65;;
1014;SDS011;8170;48.118;11.628;2022-12-11T02:51:29;27.63;;;19.60;;
1014;SDS011;8170;48.118;11.628;2022-12-11T02:52:37;28.92;;;19.58;;
1014;SDS011;8170;48.118;11.628;2022-12-11T02:53:42;27.20;;;19.45;;
1014;SDS011;8170;48.118;11.628;2022-12-11T02:54:46;26.45;;;19.67;;
1014;SDS011;8170;48.118;11.628;2022-12-11T02:55:51;31.95;;;21.67;;
1014;SDS011;8170;48.118;11.628;2022-12-11T02:57:02;30.17;;;20.80;;
1014;SDS011;8170;48.118;11.628;2022-12-11T02:58:11;27.40;;;18.25;;
1014;SDS011;8170;48.118;11.628;2022-12-11T02:59:20;27.70;;;20.80;;
1014;SDS011;8170;48.118;11.628;2022-12-11T03:00:28;29.25;;;20.50;;
1014;SDS011;8170;48.118;11.628;2022-12-11T03:01:31;29.10;;;20.15;;
1014;SDS011;8170;48.118;11.628;2022-12-11T03:02:34;28.73;;;21.13;;
1014;SDS011;8170;48.118;11.628;2022-12-11T03:03:38;27.73;;;18.52;;
1014;SDS011;8170;48.118;11.628;2022-12-11T03:04:40;27.27;;;19.23;;
1014;SDS011;8170;48.118;11.628;2022-12-11T03:05:44;29.48;;;21.00;;
1014;SDS011;8170;48.118;11.628;2022-12-11T03:06:47;28.25;;;20.25;;
1014;SDS011;8170;48.118;11.628;2022-12-11T03:07:54;24.65;;;17.60;;
1014;SDS011;8170;48.118;11.628;2022-12-11T03:08:58;27.73;;;19.00;;
1014;SDS011;8170;48.118;11.628;2022-12-11T03:10:00;27.55;;;19.65;;
1014;SDS011;8170;48.118;11.628;2022-12-11T03:11:03;28.42;;;19.10;;
1014;SDS011;8170;48.118;11.628;2022-12-11T03:12:05;25.02;;;17.75;;
1014;SDS011;8170;48.118;11.628;2022-12-11T03:13:11;23.08;;;16.65;;
1014;SDS011;8170;48.118;11.628;2022-12-11T03:14:14;24.77;;;17.48;;
1014;SDS011;8170;48.118;11.628;2022-12-11T03:15:19;26.00;;;18.05;;
1014;SDS011;8170;48.118;11.628;2022-12-11T03:16:28;25.38;;;18.02;;
1014;SDS011;8170;48.118;11.628;2022-12-11T03:17:37;23.95;;;17.35;;
1014;SDS011;8170;48.118;11.628;2022-12-11T03:18:48;24.42;;;17.10;;
1014;SDS011;8170;48.118;11.628;2022-12-11T03:20:02;21.75;;;16.42;;
1014;SDS011;8170;48.118;11.628;2022-12-11T03:21:13;23.17;;;16.35;;
1014;SDS011;8170;48.118;11.628;2022-12-11T03:22:21;21.92;;;16.67;;
1014;SDS011;8170;48.118;11.628;2022-12-11T03:23:29;23.20;;;16.75;;
1014;SDS011;8170;48.118;11.628;2022-12-11T03:24:36;25.60;;;17.60;;
1014;SDS011;8170;48.118;11.628;2022-12-11T03:25:43;22.00;;;16.02;;
1014;SDS011;8170;48.118;11.628;2022-12-11T03:26:54;21.73;;;15.15;;
1014;SDS011;8170;48.118;11.628;2022-12-11T03:28:04;23.75;;;16.63;;
1014;SDS011;8170;48.118;11.628;2022-12-11T03:29:14;21.45;;;15.30;;
1014;SDS011;8170;48.118;11.628;2022-12-11T03:30:21;25.33;;;17.30;;
1014;SDS011;8170;48.118;11.628;2022-12-11T03:31:28;22.65;;;16.20;;
1014;SDS011;8170;48.118;11.628;2022-12-11T03:32:35;24.20;;;17.42;;
1014;SDS011;8170;48.118;11.628;2022-12-11T03:33:41;23.88;;;16.27;;
1014;SDS011;8170;48.118;11.628;2022-12-11T03:34:48;21.75;;;16.50;;
1014;SDS011;8170;48.118;11.628;2022-12-11T03:36:00;22.25;;;16.02;;
1014;SDS011;8170;48.118;11.628;2022-12-11T03:37:05;22.58;;;16.58;;
1014;SDS011;8170;48.118;11.628;2022-12-11T03:38:24;23.48;;;16.15;;
1014;SDS011;8170;48.118;11.628;2022-12-11T03:39:34;21.60;;;15.60;;
1014;SDS011;8170;48.118;11.628;2022-12-11T03:40:40;20.25;;;14.15;;
1014;SDS011;8170;48.118;11.628;2022-12-11T03:41:44;21.27;;;14.25;;
1014;SDS011;8170;48.118;11.628;2022-12-11T03:42:50;22.10;;;14.80;;
1014;SDS011;8170;48.118;11.628;2022-12-11T03:43:55;19.65;;;14.40;;
1014;SDS011;8170;48.118;11.628;2022-12-11T03:44:59;19.55;;;15.25;;
1014;SDS011;8170;48.118;11.628;2022-12-11T03:46:06;21.02;;;15.73;;
1014;SDS011;8170;48.118;11.628;2022-12-11T03:47:12;21.77;;;15.77;;
1014;SDS011;8170;48.118;11.628;2022-12-11T03:48:18;22.63;;;16.75;;
1014;SDS011;8170;48.118;11.628;2022-12-11T03:49:25;21.95;;;15.60;;
1014;SDS011;8170;48.118;11.628;2022-12-11T03:50:30;22.30;;;15.32;;
1014;SDS011;8170;48.118;11.628;2022-12-11T03:51:34;21.10;;;15.93;;
1014;SDS011;8170;48.118;11.628;2022-12-11T03:52:38;18.42;;;14.45;;
1014;SDS011;8170;48.118;11.628;2022-12-11T03:53:46;19.33;;;14.18;;
1014;SDS011;8170;48.118;11.628;2022-12-11T03:54:49;19.23;;;14.05;;
1014;SDS011;8170;48.118;11.628;2022-12-11T03:55:53;21.50;;;15.55;;
1014;SDS011;8170;48.118;11.628;2022-12-11T03:56:58;21.30;;;15.18;;
1014;SDS011;8170;48.118;11.628;2022-12-11T03:58:04;25.00;;;17.13;;
1014;SDS011;8170;48.118;11.628;2022-12-11T03:59:06;25.75;;;17.92;;
1014;SDS011;8170;48.118;11.628;2022-12-11T04:00:11;22.90;;;15.82;;
1014;SDS011;8170;48.118;11.628;2022-12-11T04:01:17;20.67;;;15.25;;
1014;SDS011;8170;48.118;11.628;2022-12-11T04:02:20;20.98;;;15.85;;
1014;SDS011;8170;48.118;11.628;2022-12-11T04:03:22;20.27;;;14.98;;
1014;SDS011;8170;48.118;11.628;2022-12-11T04:04:26;22.15;;;15.98;;
1014;SDS011;8170;48.118;11.628;2022-12-11T04:05:28;21.98;;;16.95;;
1014;SDS011;8170;48.118;11.628;2022-12-11T04:06:31;24.23;;;16.02;;
1014;SDS011;8170;48.118;11.628;2022-12-11T04:07:33;24.73;;;17.05;;
1014;SDS011;8170;48.118;11.628;2022-12-11T04:08:36;21.48;;;16.95;;
1014;SDS011;8170;48.118;11.628;2022-12-11T04:09:38;26.70;;;18.75;;
1014;SDS011;8170;48.118;11.628;2022-12-11T04:10:41;19.70;;;14.82;;
1014;SDS011;8170;48.118;11.628;2022-12-11T04:11:43;24.10;;;17.50;;
1014;SDS011;8170;48.118;11.628;2022-12-11T04:12:47;22.45;;;16.27;;
1014;SDS011;8170;48.118;11.628;2022-12-11T04:13:49;19.23;;;14.55;;
1014;SDS011;8170;48.118;11.628;2022-12-11T04:15:12;18.90;;;13.57;;
1014;SDS011;8170;48.118;11.628;2022-12-11T04:16:14;20.10;;;14.60;;
1014;SDS011;8170;48.118;11.628;2022-12-11T04:17:18;23.05;;;15.73;;
1014;SDS011;8170;48.118;11.628;2022-12-11T04:18:35;20.23;;;14.77;;
1014;SDS011;8170;48.118;11.628;2022-12-11T04:19:55;20.52;;;14.45;;
1014;SDS011;8170;48.118;11.628;2022-12-11T04:21:16;18.92;;;13.93;;
1014;SDS011;8170;48.118;11.628;2022-12-11T04:22:40;20.02;;;15.00;;
1014;SDS011;8170;48.118;11.628;2022-12-11T04:24:00;19.15;;;13.43;;
1014;SDS011;8170;48.118;11.628;2022-12-11T04:25:18;18.30;;;13.20;;
1014;SDS011;8170;48.118;11.628;2022-12-11T04:26:20;21.00;;;14.60;;
1014;SDS011;8170;48.118;11.628;2022-12-11T04:27:24;21.38;;;14.88;;
1014;SDS011;8170;48.118;11.628;2022-12-11T04:28:50;19.60;;;14.30;;
1014;SDS011;8170;48.118;11.628;2022-12-11T04:29:53;19.80;;;13.32;;
1014;SDS011;8170;48.118;11.628;2022-12-11T04:30:55;20.35;;;14.35;;
1014;SDS011;8170;48.118;11.628;2022-12-11T04:32:00;18.60;;;13.45;;
1014;SDS011;8170;48.118;11.628;2022-12-11T04:33:02;19.50;;;14.23;;
1014;SDS011;8170;48.118;11.628;2022-12-11T04:34:05;20.00;;;14.18;;
1014;SDS011;8170;48.118;11.628;2022-12-11T04:35:08;21.40;;;14.05;;
1014;SDS011;8170;48.118;11.628;2022-12-11T04:36:12;20.05;;;14.65;;
1014;SDS011;8170;48.118;11.628;2022-12-11T04:37:15;18.42;;;13.90;;
1014;SDS011;8170;48.118;11.628;2022-12-11T04:38:17;20.08;;;14.77;;
1014;SDS011;8170;48.118;11.628;2022-12-11T04:39:20;19.17;;;14.25;;
1014;SDS011;8170;48.118;11.628;2022-12-11T04:40:23;21.80;;;15.25;;
1014;SDS011;8170;48.118;11.628;2022-12-11T04:41:26;18.45;;;14.07;;
1014;SDS011;8170;48.118;11.628;2022-12-11T04:42:29;20.38;;;14.63;;
1014;SDS011;8170;48.118;11.628;2022-12-11T04:43:32;19.38;;;14.02;;
1014;SDS011;8170;48.118;11.628;2022-12-11T04:44:34;18.98;;;14.43;;
1014;SDS011;8170;48.118;11.628;2022-12-11T04:45:37;18.67;;;13.93;;
1014;SDS011;8170;48.118;11.628;2022-12-11T04:46:39;20.92;;;14.93;;
1014;SDS011;8170;48.118;11.628;2022-12-11T04:47:43;18.52;;;14.40;;
1014;SDS011;8170;48.118;11.628;2022-12-11T04:48:46;20.52;;;14.65;;
1014;SDS011;8170;48.118;11.628;2022-12-11T04:49:57;21.10;;;14.00;;
1014;SDS011;8170;48.118;11.628;2022-12-11T04:50:59;19.45;;;14.27;;
1014;SDS011;8170;48.118;11.628;2022-12-11T04:52:02;18.20;;;13.38;;
1014;SDS011;8170;48.118;11.628;2022-12-11T04:53:05;18.90;;;12.93;;
1014;SDS011;8170;48.118;11.628;2022-12-11T04:54:08;17.75;;;12.85;;
1014;SDS011;8170;48.118;11.628;2022-12-11T04:55:10;18.00;;;13.35;;
1014;SDS011;8170;48.118;11.628;2022-12-11T04:56:15;17.67;;;12.07;;
1014;SDS011;8170;48.118;11.628;2022-12-11T04:57:17;18.50;;;12.50;;
1014;SDS011;8170;48.118;11.628;2022-12-11T04:58:21;21.40;;;15.45;;
1014;SDS011;8170;48.118;11.628;2022-12-11T04:59:24;17.17;;;12.70;;
1014;SDS011;8170;48.118;11.628;2022-12-11T05:00:27;17.70;;;12.93;;
1014;SDS011;8170;48.118;11.628;2022-12-11T05:01:29;16.88;;;12.07;;
1014;SDS011;8170;48.118;11.628;2022-12-11T05:02:33;17.00;;;13.63;;
1014;SDS011;8170;48.118;11.628;2022-12-11T05:03:37;18.77;;;12.98;;
1014;SDS011;8170;48.118;11.628;2022-12-11T05:04:41;19.30;;;13.13;;
1014;SDS011;8170;48.118;11.628;2022-12-11T05:05:46;17.85;;;12.27;;
1014;SDS011;8170;48.118;11.628;2022-12-11T05:06:51;17.25;;;12.32;;
1014;SDS011;8170;48.118;11.628;2022-12-11T05:07:53;18.90;;;13.75;;
1014;SDS011;8170;48.118;11.628;2022-12-11T05:08:56;18.50;;;12.77;;
1014;SDS011;8170;48.118;11.628;2022-12-11T05:09:58;16.75;;;13.00;;
1014;SDS011;8170;48.118;11.628;2022-12-11T05:11:02;15.95;;;11.35;;
1014;SDS011;8170;48.118;11.628;2022-12-11T05:12:05;16.80;;;12.32;;
1014;SDS011;8170;48.118;11.628;2022-12-11T05:13:09;14.88;;;10.98;;
1014;SDS011;8170;48.118;11.628;2022-12-11T05:14:11;15.65;;;12.07;;
1014;SDS011;8170;48.118;11.628;2022-12-11T05:15:15;14.65;;;11.35;;
1014;SDS011;8170;48.118;11.628;2022-12-11T05:16:17;17.15;;;12.82;;
1014;SDS011;8170;48.118;11.628;2022-12-11T05:17:20;14.40;;;11.38;;
1014;SDS011;8170;48.118;11.628;2022-12-11T05:18:23;15.73;;;11.55;;
1014;SDS011;8170;48.118;11.628;2022-12-11T05:19:28;14.55;;;11.48;;
1014;SDS011;8170;48.118;11.628;2022-12-11T05:20:31;16.80;;;11.98;;
1014;SDS011;8170;48.118;11.628;2022-12-11T05:21:33;15.65;;;11.60;;
1014;SDS011;8170;48.118;11.628;2022-12-11T05:22:37;14.32;;;10.13;;
1014;SDS011;8170;48.118;11.628;2022-12-11T05:23:40;16.38;;;11.85;;
1014;SDS011;8170;48.118;11.628;2022-12-11T05:24:43;18.02;;;10.85;;
1014;SDS011;8170;48.118;11.628;2022-12-11T05:25:50;13.38;;;10.77;;
1014;SDS011;8170;48.118;11.628;2022-12-11T05:26:53;15.73;;;11.30;;
1014;SDS011;8170;48.118;11.628;2022-12-11T05:27:58;14.90;;;10.23;;
1014;SDS011;8170;48.118;11.628;2022-12-11T05:29:01;16.17;;;12.30;;
1014;SDS011;8170;48.118;11.628;2022-12-11T05:30:04;14.82;;;11.30;;
1014;SDS011;8170;48.118;11.628;2022-12-11T05:31:10;17.58;;;13.30;;
1014;SDS011;8170;48.118;11.628;2022-12-11T05:32:14;17.60;;;13.00;;
1014;SDS011;8170;48.118;11.628;2022-12-11T05:33:17;18.58;;;13.55;;
1014;SDS011;8170;48.118;11.628;2022-12-11T05:34:20;19.45;;;12.90;;
1014;SDS011;8170;48.118;11.628;2022-12-11T05:35:24;16.83;;;12.63;;
1014;SDS011;8170;48.118;11.628;2022-12-11T05:36:27;15.85;;;12.40;;
1014;SDS011;8170;48.118;11.628;2022-12-11T05:37:32;16.98;;;12.45;;
1014;SDS011;8170;48.118;11.628;2022-12-11T05:38:34;19.90;;;13.63;;
1014;SDS011;8170;48.118;11.628;2022-12-11T05:39:37;18.73;;;12.88;;
1014;SDS011;8170;48.118;11.628;2022-12-11T05:40:40;16.27;;;11.77;;
1014;SDS011;8170;48.118;11.628;2022-12-11T05:41:43;15.68;;;12.35;;
1014;SDS011;8170;48.118;11.628;2022-12-11T05:42:45;17.33;;;12.80;;
1014;SDS011;8170;48.118;11.628;2022-12-11T05:43:48;16.42;;;11.55;;
1014;SDS011;8170;48.118;11.628;2022-12-11T05:44:50;15.85;;;11.50;;
1014;SDS011;8170;48.118;11.628;2022-12-11T05:45:54;14.63;;;10.98;;
1014;SDS011;8170;48.118;11.628;2022-12-11T05:46:57;14.50;;;10.80;;
1014;SDS011;8170;48.118;11.628;2022-12-11T05:48:00;14.93;;;10.80;;
1014;SDS011;8170;48.118;11.628;2022-12-11T05:49:02;15.38;;;10.82;;
1014;SDS011;8170;48.118;11.628;2022-12-11T05:50:06;12.68;;;10.23;;
1014;SDS011;8170;48.118;11.628;2022-12-11T05:51:10;14.73;;;10.38;;
1014;SDS011;8170;48.118;11.628;2022-12-11T05:52:15;15.32;;;10.07;;
1014;SDS011;8170;48.118;11.628;2022-12-11T05:53:17;14.93;;;10.45;;
1014;SDS011;8170;48.118;11.628;2022-12-11T05:54:20;14.85;;;10.45;;
1014;SDS011;8170;48.118;11.628;2022-12-11T05:55:23;15.52;;;11.50;;
1014;SDS011;8170;48.118;11.628;2022-12-11T05:56:26;15.63;;;11.10;;
1014;SDS011;8170;48.118;11.628;2022-12-11T05:57:30;14.88;;;11.18;;
1014;SDS011;8170;48.118;11.628;2022-12-11T05:58:33;15.93;;;11.25;;
1014;SDS011;8170;48.118;11.628;2022-12-11T05:59:36;13.88;;;10.50;;
1014;SDS011;8170;48.118;11.628;2022-12-11T06:00:40;16.75;;;11.70;;
1014;SDS011;8170;48.118;11.628;2022-12-11T06:01:43;14.85;;;11.00;;
1014;SDS011;8170;48.118;11.628;2022-12-11T06:02:45;13.18;;;9.57;;
1014;SDS011;8170;48.118;11.628;2022-12-11T06:03:48;15.07;;;10.10;;
1014;SDS011;8170;48.118;11.628;2022-12-11T06:04:51;15.30;;;10.35;;
1014;SDS011;8170;48.118;11.628;2022-12-11T06:05:54;14.52;;;10.82;;
1014;SDS011;8170;48.118;11.628;2022-12-11T06:06:57;14.57;;;11.10;;
1014;SDS011;8170;48.118;11.628;2022-12-11T06:08:01;14.93;;;11.10;;
1014;SDS011;8170;48.118;11.628;2022-12-11T06:09:03;15.73;;;11.07;;
1014;SDS011;8170;48.118;11.628;2022-12-11T06:10:08;14.32;;;11.13;;
1014;SDS011;8170;48.118;11.628;2022-12-11T06:11:11;16.17;;;12.10;;
1014;SDS011;8170;48.118;11.628;2022-12-11T06:12:14;14.55;;;10.98;;
1014;SDS011;8170;48.118;11.628;2022-12-11T06:13:17;14.82;;;10.88;;
1014;SDS011;8170;48.118;11.628;2022-12-11T06:14:19;16.70;;;10.95;;
1014;SDS011;8170;48.118;11.628;2022-12-11T06:15:22;12.63;;;9.90;;
1014;SDS011;8170;48.118;11.628;2022-12-11T06:16:24;14.70;;;10.80;;
1014;SDS011;8170;48.118;11.628;2022-12-11T06:17:28;15.20;;;11.55;;
1014;SDS011;8170;48.118;11.628;2022-12-11T06:18:33;15.38;;;12.10;;
1014;SDS011;8170;48.118;11.628;2022-12-11T06:19:37;14.98;;;11.10;;
1014;SDS011;8170;48.118;11.628;2022-12-11T06:20:39;15.55;;;11.60;;
1014;SDS011;8170;48.118;11.628;2022-12-11T06:21:42;15.20;;;11.65;;
1014;SDS011;8170;48.118;11.628;2022-12-11T06:22:47;13.90;;;10.02;;
1014;SDS011;8170;48.118;11.628;2022-12-11T06:23:51;14.73;;;10.30;;
1014;SDS011;8170;48.118;11.628;2022-12-11T06:24:55;14.55;;;10.75;;
1014;SDS011;8170;48.118;11.628;2022-12-11T06:25:58;14.63;;;9.73;;
1014;SDS011;8170;48.118;11.628;2022-12-11T06:27:00;14.85;;;9.90;;
1014;SDS011;8170;48.118;11.628;2022-12-11T06:28:03;13.98;;;9.30;;